Cole Spur, Arkansas
Current Conditions -  °F | °C
As of 9:53 PM on Thursday 20 Nov 2014 (Local Time) from KPBF Reporting Station
Overcast Overcast  
Wind Chill: 48°   Ceiling: 4800
Heat Index: 48°   Visibility: 10mi
Dew Point: 42°   Wind: 3mph
Humidity: 80%   Direction: 60°ENE
Pressure: 30.2"   Gusts: NA
Location:  34.0297°N, 91.5376°W
Report Text: KPBF 210353Z AUTO 06003KT 10SM BKN048 BKN060 OVC090 09/06 A3020 RMK AO2 SLP227 T00890056
Loading
Personal Weather Stations






























Interactive Weather Map New forecast layout! Learn more

10-Day Weather Forecast

Advertisements
Track Severe Weather on mobile